createdAt,value
2022-07-31T00:01:26.421Z,20.80
2022-07-31T00:03:54.788Z,20.90
2022-07-31T00:06:24.473Z,21.00
2022-07-31T00:08:52.519Z,20.90
2022-07-31T00:11:20.754Z,21.00
2022-07-31T00:13:57.404Z,21.00
2022-07-31T00:16:26.683Z,21.00
2022-07-31T00:18:54.810Z,20.90
2022-07-31T00:21:24.642Z,20.90
2022-07-31T00:23:52.908Z,20.80
2022-07-31T00:26:21.013Z,20.80
2022-07-31T00:28:49.187Z,20.70
2022-07-31T00:31:18.461Z,20.70
2022-07-31T00:33:46.839Z,20.80
2022-07-31T00:36:14.921Z,20.70
2022-07-31T00:38:44.325Z,20.70
2022-07-31T00:41:12.520Z,20.70
2022-07-31T00:43:40.677Z,20.40
2022-07-31T00:46:14.535Z,20.50
2022-07-31T00:48:42.896Z,20.60
2022-07-31T00:51:11.413Z,20.60
2022-07-31T00:53:39.533Z,20.60
2022-07-31T00:56:09.041Z,20.50
2022-07-31T00:58:37.171Z,20.50
2022-07-31T01:01:05.531Z,20.40
2022-07-31T01:03:33.680Z,20.40
2022-07-31T01:06:01.810Z,20.40
2022-07-31T01:08:29.880Z,20.30
2022-07-31T01:11:03.131Z,20.20
2022-07-31T01:13:42.602Z,20.20
2022-07-31T01:16:12.571Z,20.20
2022-07-31T01:18:41.978Z,20.20
2022-07-31T01:21:17.713Z,20.20
2022-07-31T01:24:13.546Z,20.20
2022-07-31T01:26:50.105Z,20.20
2022-07-31T01:29:25.556Z,20.20
2022-07-31T01:32:00.486Z,20.10
2022-07-31T01:34:34.830Z,20.10
2022-07-31T01:37:10.511Z,20.00
2022-07-31T01:39:44.149Z,19.90
2022-07-31T01:42:15.092Z,19.90
2022-07-31T01:44:47.210Z,19.90
2022-07-31T01:47:20.197Z,19.90
2022-07-31T01:49:50.738Z,19.90
2022-07-31T01:52:20.421Z,19.90
2022-07-31T01:54:49.898Z,19.80
2022-07-31T01:57:19.741Z,19.80
2022-07-31T01:59:54.550Z,19.80
2022-07-31T02:02:23.991Z,19.80
2022-07-31T02:04:53.623Z,19.80
2022-07-31T02:07:23.625Z,19.80
2022-07-31T02:09:59.112Z,19.80
2022-07-31T02:12:32.109Z,19.70
2022-07-31T02:15:05.494Z,19.70
2022-07-31T02:17:34.757Z,19.70
2022-07-31T02:20:03.751Z,19.70
2022-07-31T02:22:31.928Z,19.60
2022-07-31T02:25:00.411Z,19.60
2022-07-31T02:27:55.558Z,19.60
2022-07-31T02:30:19.710Z,19.60
2022-07-31T02:32:49.196Z,19.50
2022-07-31T02:35:18.722Z,19.60
2022-07-31T02:37:49.901Z,19.50
2022-07-31T02:40:19.026Z,19.40
2022-07-31T02:42:49.079Z,19.40
2022-07-31T02:45:19.742Z,19.40
2022-07-31T02:47:48.494Z,19.30
2022-07-31T02:50:20.271Z,19.30
2022-07-31T02:52:48.878Z,19.40
2022-07-31T02:55:18.698Z,19.30
2022-07-31T02:57:48.216Z,19.30
2022-07-31T03:00:23.097Z,19.30
2022-07-31T03:02:51.498Z,19.30
2022-07-31T03:05:19.854Z,19.30
2022-07-31T03:07:47.969Z,19.20
2022-07-31T03:10:16.170Z,19.20
2022-07-31T03:12:46.661Z,19.20
2022-07-31T03:15:17.782Z,19.20
2022-07-31T03:17:49.030Z,19.20
2022-07-31T03:20:18.084Z,19.20
2022-07-31T03:22:47.184Z,19.20
2022-07-31T03:25:21.152Z,19.20
2022-07-31T03:27:55.572Z,19.20
2022-07-31T03:30:25.180Z,19.20
2022-07-31T03:32:55.330Z,19.10
2022-07-31T03:35:24.372Z,19.10
2022-07-31T03:37:52.502Z,19.10
2022-07-31T03:40:20.765Z,19.10
2022-07-31T03:42:49.991Z,19.10
2022-07-31T03:45:18.768Z,19.10
2022-07-31T03:47:47.201Z,19.10
2022-07-31T03:50:17.358Z,19.00
2022-07-31T03:52:47.544Z,19.00
2022-07-31T03:55:16.183Z,19.00
2022-07-31T03:57:45.832Z,18.90
2022-07-31T04:00:17.894Z,18.90
2022-07-31T04:02:46.711Z,18.90
2022-07-31T04:05:16.357Z,18.90
2022-07-31T04:07:44.442Z,18.80
2022-07-31T04:10:12.863Z,18.80
2022-07-31T04:12:41.022Z,18.80
2022-07-31T04:15:10.012Z,18.80
2022-07-31T04:17:38.188Z,18.70
2022-07-31T04:20:07.685Z,18.70
2022-07-31T04:22:37.219Z,18.70
2022-07-31T04:25:08.617Z,18.70
2022-07-31T04:27:48.083Z,18.70
2022-07-31T04:30:16.943Z,18.80
2022-07-31T04:32:45.002Z,18.70
2022-07-31T04:35:13.725Z,18.70
2022-07-31T04:37:48.072Z,18.60
2022-07-31T04:40:17.169Z,18.70
2022-07-31T04:42:45.241Z,18.80
2022-07-31T04:45:13.521Z,18.80
2022-07-31T04:47:41.614Z,18.80
2022-07-31T04:50:10.618Z,18.80
2022-07-31T04:52:38.719Z,18.90
2022-07-31T04:55:09.093Z,18.90
2022-07-31T04:57:37.252Z,19.00
2022-07-31T05:00:07.830Z,19.00
2022-07-31T05:02:35.974Z,19.00
2022-07-31T05:05:04.262Z,18.90
2022-07-31T05:07:32.548Z,18.80
2022-07-31T05:10:00.612Z,18.80
2022-07-31T05:12:30.039Z,18.80
2022-07-31T05:14:58.343Z,18.80
2022-07-31T05:17:26.496Z,18.40
2022-07-31T05:19:54.560Z,18.50
2022-07-31T05:22:22.649Z,18.60
2022-07-31T05:24:50.868Z,18.80
2022-07-31T05:27:18.952Z,18.70
2022-07-31T05:29:48.392Z,18.70
2022-07-31T05:32:16.906Z,18.90
2022-07-31T05:34:45.264Z,18.80
2022-07-31T05:37:13.378Z,18.60
2022-07-31T05:39:41.604Z,18.50
2022-07-31T05:42:09.650Z,18.40
2022-07-31T05:44:37.934Z,18.70
2022-07-31T05:47:09.738Z,18.80
2022-07-31T05:49:38.026Z,18.50
2022-07-31T05:52:06.987Z,18.30
2022-07-31T05:54:35.513Z,18.30
2022-07-31T05:57:03.594Z,18.20
2022-07-31T05:59:32.883Z,18.00
2022-07-31T06:02:01.325Z,18.10
2022-07-31T06:04:32.667Z,18.10
2022-07-31T06:07:00.750Z,18.10
2022-07-31T06:09:29.254Z,18.00
2022-07-31T06:11:57.323Z,18.10
2022-07-31T06:14:25.785Z,18.30
2022-07-31T06:16:53.882Z,18.40
2022-07-31T06:19:24.530Z,18.60
2022-07-31T06:21:54.348Z,18.80
2022-07-31T06:24:22.542Z,19.00
2022-07-31T06:26:50.627Z,19.10
2022-07-31T06:29:19.015Z,19.20
2022-07-31T06:32:08.719Z,19.30
2022-07-31T06:34:37.660Z,19.20
2022-07-31T06:37:07.185Z,19.30
2022-07-31T06:39:54.334Z,19.30
2022-07-31T06:42:25.802Z,19.40
2022-07-31T06:44:54.368Z,19.60
2022-07-31T06:47:24.728Z,19.70
2022-07-31T06:49:52.834Z,19.60
2022-07-31T06:52:22.238Z,19.30
2022-07-31T06:54:50.623Z,19.20
2022-07-31T06:57:18.660Z,19.10
2022-07-31T06:59:46.793Z,19.00
2022-07-31T07:02:14.868Z,19.10
2022-07-31T07:05:04.646Z,19.10
2022-07-31T07:07:32.676Z,19.20
2022-07-31T07:10:00.838Z,19.30
2022-07-31T07:12:29.121Z,19.30
2022-07-31T07:14:58.099Z,19.40
2022-07-31T07:17:29.139Z,19.50
2022-07-31T07:19:58.051Z,19.50
2022-07-31T07:22:31.489Z,19.60
2022-07-31T07:25:02.175Z,19.70
2022-07-31T07:27:30.369Z,19.60
2022-07-31T07:29:58.841Z,19.50
2022-07-31T07:32:26.891Z,19.60
2022-07-31T07:34:59.280Z,19.50
2022-07-31T07:37:28.808Z,19.50
2022-07-31T07:39:56.958Z,19.40
2022-07-31T07:42:33.120Z,19.40
2022-07-31T07:45:02.229Z,19.60
2022-07-31T07:48:04.993Z,19.80
2022-07-31T07:50:27.130Z,20.00
2022-07-31T07:52:57.824Z,20.00
2022-07-31T07:55:26.365Z,20.00
2022-07-31T07:57:56.393Z,20.20
2022-07-31T08:00:24.714Z,20.30
2022-07-31T08:03:46.951Z,20.30
2022-07-31T08:05:42.667Z,20.30
2022-07-31T08:08:10.818Z,20.20
2022-07-31T08:10:40.440Z,20.20
2022-07-31T08:13:10.995Z,20.20
2022-07-31T08:15:39.158Z,20.30
2022-07-31T08:18:07.487Z,20.50
2022-07-31T08:20:37.451Z,20.60
2022-07-31T08:23:05.599Z,20.60
2022-07-31T08:25:33.795Z,20.70
2022-07-31T08:28:02.220Z,20.60
2022-07-31T08:30:32.014Z,20.70
2022-07-31T08:33:00.999Z,20.70
2022-07-31T08:35:29.814Z,20.80
2022-07-31T08:38:03.806Z,20.80
2022-07-31T08:40:34.928Z,20.80
2022-07-31T08:44:00.660Z,20.90
2022-07-31T08:46:04.189Z,21.00
2022-07-31T08:48:34.205Z,21.10
2022-07-31T08:51:04.676Z,21.20
2022-07-31T08:53:37.937Z,21.30
2022-07-31T08:56:07.295Z,21.40
2022-07-31T08:58:39.313Z,21.50
2022-07-31T09:01:12.352Z,21.60
2022-07-31T09:03:40.802Z,21.70
2022-07-31T09:06:08.881Z,21.70
2022-07-31T09:08:38.131Z,21.70
2022-07-31T09:11:07.293Z,21.70
2022-07-31T09:13:35.926Z,21.60
2022-07-31T09:16:05.004Z,21.60
2022-07-31T09:18:35.127Z,21.70
2022-07-31T09:21:05.617Z,21.80
2022-07-31T09:23:34.774Z,21.90
2022-07-31T09:26:04.981Z,21.90
2022-07-31T09:28:34.783Z,22.10
2022-07-31T09:31:03.458Z,22.10
2022-07-31T09:33:32.779Z,22.20
2022-07-31T09:36:02.258Z,22.30
2022-07-31T09:38:33.323Z,22.40
2022-07-31T09:41:55.709Z,22.50
2022-07-31T09:44:10.371Z,22.70
2022-07-31T09:46:42.927Z,22.80
2022-07-31T09:49:11.121Z,22.90
2022-07-31T09:51:41.881Z,22.90
2022-07-31T09:54:20.945Z,22.90
2022-07-31T09:56:50.267Z,23.00
2022-07-31T09:59:18.521Z,23.00
2022-07-31T10:01:49.488Z,23.20
2022-07-31T10:04:19.123Z,23.30
2022-07-31T10:06:50.894Z,23.30
2022-07-31T10:09:21.595Z,23.30
2022-07-31T10:11:51.311Z,23.20
2022-07-31T10:14:25.377Z,23.20
2022-07-31T10:16:58.159Z,23.20
2022-07-31T10:19:28.541Z,23.20
2022-07-31T10:22:01.443Z,23.30
2022-07-31T10:24:32.967Z,23.40
2022-07-31T10:27:04.421Z,23.50
2022-07-31T10:29:39.351Z,23.60
2022-07-31T10:32:08.266Z,23.60
2022-07-31T10:34:37.107Z,23.70
2022-07-31T10:37:12.684Z,23.80
2022-07-31T10:39:50.740Z,23.80
2022-07-31T10:42:30.386Z,23.90
2022-07-31T10:45:06.595Z,23.90
2022-07-31T10:47:34.761Z,24.10
2022-07-31T10:50:03.753Z,24.10
2022-07-31T10:52:34.901Z,24.30
2022-07-31T10:55:03.162Z,24.40
2022-07-31T10:57:33.297Z,24.40
2022-07-31T11:00:12.273Z,24.50
2022-07-31T11:02:40.807Z,24.50
2022-07-31T11:05:14.402Z,24.40
2022-07-31T11:07:45.762Z,24.40
2022-07-31T11:10:16.813Z,24.40
2022-07-31T11:12:45.789Z,24.40
2022-07-31T11:15:24.907Z,24.50
2022-07-31T11:18:21.853Z,24.50
2022-07-31T11:20:48.749Z,24.60
2022-07-31T11:23:18.764Z,24.60
2022-07-31T11:25:47.762Z,24.60
2022-07-31T11:28:18.963Z,24.70
2022-07-31T11:30:55.747Z,24.80
2022-07-31T11:33:41.989Z,24.90
2022-07-31T11:36:13.291Z,24.90
2022-07-31T11:38:44.734Z,25.00
2022-07-31T11:41:15.646Z,25.10
2022-07-31T11:43:48.344Z,25.20
2022-07-31T11:46:25.072Z,25.20
2022-07-31T11:48:53.594Z,25.30
2022-07-31T11:51:22.391Z,25.30
2022-07-31T11:53:57.388Z,25.40
2022-07-31T11:56:27.816Z,25.50
2022-07-31T11:58:58.001Z,25.50
2022-07-31T12:01:28.355Z,25.50
2022-07-31T12:04:08.377Z,25.60
2022-07-31T12:06:37.491Z,25.60
2022-07-31T12:09:07.374Z,25.70
2022-07-31T12:11:56.077Z,25.80
2022-07-31T12:14:31.835Z,25.90
2022-07-31T12:17:00.578Z,26.00
2022-07-31T12:19:30.379Z,26.00
2022-07-31T12:22:14.819Z,26.10
2022-07-31T12:24:44.572Z,26.10
2022-07-31T12:27:16.639Z,26.10
2022-07-31T12:29:45.370Z,26.10
2022-07-31T12:32:13.521Z,26.10
2022-07-31T12:34:43.629Z,26.20
2022-07-31T12:37:13.193Z,26.20
2022-07-31T12:40:00.881Z,26.30
2022-07-31T12:42:35.104Z,26.40
2022-07-31T12:45:17.892Z,26.40
2022-07-31T12:47:51.797Z,26.50
2022-07-31T12:50:21.086Z,26.50
2022-07-31T12:52:49.210Z,26.60
2022-07-31T12:55:19.588Z,26.70
2022-07-31T12:57:50.489Z,26.80
2022-07-31T13:00:22.816Z,26.90
2022-07-31T13:02:51.886Z,26.90
2022-07-31T13:05:20.582Z,27.00
2022-07-31T13:07:49.094Z,27.00
2022-07-31T13:10:23.693Z,27.00
2022-07-31T13:12:53.484Z,27.00
2022-07-31T13:15:29.598Z,26.90
2022-07-31T13:17:58.500Z,27.00
2022-07-31T13:20:26.953Z,27.10
2022-07-31T13:22:55.003Z,27.10
2022-07-31T13:25:24.521Z,27.10
2022-07-31T13:27:52.789Z,27.20
2022-07-31T13:30:20.901Z,27.20
2022-07-31T13:32:49.044Z,27.20
2022-07-31T13:35:24.224Z,27.20
2022-07-31T13:37:56.850Z,27.20
2022-07-31T13:40:40.275Z,27.20
2022-07-31T13:43:08.470Z,27.30
2022-07-31T13:45:37.094Z,27.30
2022-07-31T13:48:09.321Z,27.30
2022-07-31T13:50:39.598Z,27.30
2022-07-31T13:53:07.902Z,27.30
2022-07-31T13:55:39.348Z,27.40
2022-07-31T13:58:08.316Z,27.40
2022-07-31T14:00:36.728Z,27.40
2022-07-31T14:03:04.850Z,27.50
2022-07-31T14:05:40.286Z,27.40
2022-07-31T14:08:32.831Z,27.50
2022-07-31T14:10:58.211Z,27.60
2022-07-31T14:13:26.761Z,27.80
2022-07-31T14:15:54.836Z,28.00
2022-07-31T14:18:23.558Z,28.10
2022-07-31T14:20:51.975Z,28.20
2022-07-31T14:23:20.081Z,28.30
2022-07-31T14:25:51.095Z,28.30
2022-07-31T14:28:20.542Z,28.40
2022-07-31T14:30:50.666Z,28.40
2022-07-31T14:33:18.870Z,28.50
2022-07-31T14:35:53.285Z,28.70
2022-07-31T14:38:27.474Z,28.80
2022-07-31T14:40:56.303Z,28.70
2022-07-31T14:43:25.843Z,28.50
2022-07-31T14:45:53.945Z,28.80
2022-07-31T14:48:22.125Z,29.20
2022-07-31T14:50:50.297Z,29.00
2022-07-31T14:53:18.424Z,28.90
2022-07-31T14:55:46.613Z,28.70
2022-07-31T14:58:14.681Z,28.60
2022-07-31T15:00:44.217Z,28.90
2022-07-31T15:03:12.333Z,29.80
2022-07-31T15:06:50.835Z,30.10
2022-07-31T15:08:30.028Z,29.80
2022-07-31T15:10:58.112Z,29.50
2022-07-31T15:13:26.139Z,29.30
2022-07-31T15:15:55.840Z,29.30
2022-07-31T15:18:25.745Z,29.60
2022-07-31T15:20:54.102Z,29.40
2022-07-31T15:23:22.290Z,29.40
2022-07-31T15:25:50.448Z,30.10
2022-07-31T15:28:18.526Z,31.20
2022-07-31T15:30:46.719Z,31.80
2022-07-31T15:33:16.219Z,31.90
2022-07-31T15:35:44.295Z,31.80
2022-07-31T15:38:12.333Z,32.10
2022-07-31T15:40:40.645Z,32.30
2022-07-31T15:43:08.701Z,32.50
2022-07-31T15:45:36.892Z,32.30
2022-07-31T15:48:09.841Z,31.70
2022-07-31T15:50:39.797Z,31.00
2022-07-31T15:53:07.928Z,30.30
2022-07-31T15:55:36.352Z,29.90
2022-07-31T15:58:04.580Z,29.40
2022-07-31T16:00:32.658Z,29.10
2022-07-31T16:03:01.786Z,28.90
2022-07-31T16:05:36.677Z,28.80
2022-07-31T16:08:33.189Z,28.90
2022-07-31T16:10:57.655Z,29.00
2022-07-31T16:13:26.295Z,28.90
2022-07-31T16:15:54.594Z,28.80
2022-07-31T16:18:22.631Z,28.60
2022-07-31T16:20:50.738Z,28.30
2022-07-31T16:23:20.273Z,28.20
2022-07-31T16:25:48.514Z,28.20
2022-07-31T16:28:16.614Z,28.00
2022-07-31T16:30:45.717Z,28.00
2022-07-31T16:33:14.183Z,27.90
2022-07-31T16:35:42.398Z,27.90
2022-07-31T16:38:10.481Z,27.90
2022-07-31T16:40:40.018Z,27.80
2022-07-31T16:43:48.683Z,27.80
2022-07-31T16:45:59.215Z,27.80
2022-07-31T16:48:27.334Z,27.80
2022-07-31T16:50:55.510Z,27.80
2022-07-31T16:54:13.221Z,27.80
2022-07-31T16:56:14.078Z,27.80
2022-07-31T16:58:42.273Z,27.80
2022-07-31T17:01:57.039Z,27.70
2022-07-31T17:04:03.092Z,27.60
2022-07-31T17:06:36.547Z,27.60
2022-07-31T17:09:17.509Z,27.50
2022-07-31T17:11:49.906Z,27.50
2022-07-31T17:14:19.478Z,27.40
2022-07-31T17:16:49.890Z,27.30
2022-07-31T17:19:42.389Z,27.20
2022-07-31T17:22:08.182Z,27.20
2022-07-31T17:24:41.196Z,27.10
2022-07-31T17:27:10.939Z,27.00
2022-07-31T17:29:39.798Z,27.00
2022-07-31T17:32:11.085Z,27.00
2022-07-31T17:34:40.215Z,27.00
2022-07-31T17:37:09.106Z,26.90
2022-07-31T17:39:37.509Z,26.80
2022-07-31T17:42:06.054Z,26.70
2022-07-31T17:44:39.985Z,26.40
2022-07-31T17:47:09.460Z,26.30
2022-07-31T17:49:38.290Z,26.30
2022-07-31T17:52:06.945Z,26.30
2022-07-31T17:54:35.127Z,26.20
2022-07-31T17:57:04.069Z,26.00
2022-07-31T17:59:32.353Z,26.00
2022-07-31T18:02:03.627Z,26.00
2022-07-31T18:04:34.419Z,25.90
2022-07-31T18:07:04.360Z,25.80
2022-07-31T18:09:33.426Z,25.80
2022-07-31T18:12:01.976Z,25.80
2022-07-31T18:14:30.293Z,25.60
2022-07-31T18:16:58.397Z,25.50
2022-07-31T18:19:28.012Z,25.50
2022-07-31T18:21:56.150Z,25.50
2022-07-31T18:24:25.309Z,25.40
2022-07-31T18:26:54.807Z,25.40
2022-07-31T18:29:23.311Z,25.30
2022-07-31T18:31:51.533Z,25.30
2022-07-31T18:34:19.630Z,25.20
2022-07-31T18:36:54.591Z,25.20
2022-07-31T18:39:23.558Z,25.10
2022-07-31T18:41:51.713Z,25.10
2022-07-31T18:44:21.376Z,25.00
2022-07-31T18:46:50.064Z,24.90
2022-07-31T18:51:03.192Z,24.90
2022-07-31T18:52:10.032Z,24.80
2022-07-31T18:54:38.763Z,24.80
2022-07-31T18:57:07.828Z,24.80
2022-07-31T18:59:35.977Z,24.70
2022-07-31T19:02:04.730Z,24.70
2022-07-31T19:04:34.106Z,24.70
2022-07-31T19:07:02.169Z,24.60
2022-07-31T19:09:31.846Z,24.60
2022-07-31T19:12:06.080Z,24.60
2022-07-31T19:14:36.043Z,24.50
2022-07-31T19:17:04.222Z,24.50
2022-07-31T19:19:52.714Z,24.40
2022-07-31T19:22:20.916Z,24.40
2022-07-31T19:24:50.891Z,24.30
2022-07-31T19:27:19.526Z,24.20
2022-07-31T19:29:47.804Z,24.20
2022-07-31T19:32:15.874Z,24.10
2022-07-31T19:34:48.089Z,24.00
2022-07-31T19:37:20.449Z,24.00
2022-07-31T19:39:50.223Z,24.00
2022-07-31T19:42:18.562Z,23.90
2022-07-31T19:44:46.741Z,23.90
2022-07-31T19:47:15.149Z,23.90
2022-07-31T19:49:44.730Z,23.80
2022-07-31T19:52:12.966Z,23.80
2022-07-31T19:54:41.248Z,23.70
2022-07-31T19:57:11.082Z,23.70
2022-07-31T19:59:39.615Z,23.70
2022-07-31T20:02:08.084Z,23.70
2022-07-31T20:04:37.360Z,23.70
2022-07-31T20:07:05.541Z,23.70
2022-07-31T20:09:33.972Z,23.60
2022-07-31T20:12:02.294Z,23.60
2022-07-31T20:14:32.106Z,23.60
2022-07-31T20:17:00.210Z,23.60
2022-07-31T20:19:28.444Z,23.60
2022-07-31T20:21:57.550Z,23.50
2022-07-31T20:24:27.034Z,23.50
2022-07-31T20:26:55.349Z,23.40
2022-07-31T20:29:23.639Z,23.40
2022-07-31T20:31:53.513Z,23.30
2022-07-31T20:34:22.502Z,23.30
2022-07-31T20:36:50.543Z,23.20
2022-07-31T20:39:18.725Z,23.20
2022-07-31T20:41:46.816Z,23.20
2022-07-31T20:44:17.353Z,23.10
2022-07-31T20:46:45.514Z,23.10
2022-07-31T20:49:27.199Z,23.10
2022-07-31T20:52:03.564Z,23.10
2022-07-31T20:54:34.054Z,23.10
2022-07-31T20:57:02.824Z,23.00
2022-07-31T20:59:31.418Z,23.00
2022-07-31T21:01:59.594Z,22.90
2022-07-31T21:04:29.169Z,22.90
2022-07-31T21:06:57.310Z,22.90
2022-07-31T21:09:25.547Z,22.80
2022-07-31T21:11:53.650Z,22.80
2022-07-31T21:14:21.868Z,22.70
2022-07-31T21:16:50.038Z,22.70
2022-07-31T21:19:19.226Z,22.60
2022-07-31T21:21:48.688Z,22.60
2022-07-31T21:24:17.323Z,22.60
2022-07-31T21:26:46.985Z,22.60
2022-07-31T21:29:19.513Z,22.60
2022-07-31T21:31:49.973Z,22.50
2022-07-31T21:34:19.248Z,22.50
2022-07-31T21:36:50.328Z,22.50
2022-07-31T21:39:19.656Z,22.40
2022-07-31T21:41:48.229Z,22.40
2022-07-31T21:44:18.635Z,22.40
2022-07-31T21:46:49.933Z,22.30
2022-07-31T21:49:21.544Z,22.30
2022-07-31T21:51:51.745Z,22.30
2022-07-31T21:54:19.947Z,22.40
2022-07-31T21:56:48.044Z,22.30
2022-07-31T21:59:16.314Z,22.30
2022-07-31T22:01:58.024Z,22.30
2022-07-31T22:04:34.514Z,22.30
2022-07-31T22:07:21.757Z,22.20
2022-07-31T22:09:49.847Z,22.10
2022-07-31T22:12:17.953Z,22.10
2022-07-31T22:14:46.398Z,22.10
2022-07-31T22:17:14.550Z,22.00
2022-07-31T22:19:47.239Z,22.10
2022-07-31T22:22:18.361Z,22.20
2022-07-31T22:24:46.996Z,22.20
2022-07-31T22:27:33.683Z,22.20
2022-07-31T22:30:02.354Z,22.30
2022-07-31T22:32:30.782Z,22.20
2022-07-31T22:34:58.982Z,22.20
2022-07-31T22:37:29.131Z,22.20
2022-07-31T22:39:59.322Z,22.10
2022-07-31T22:42:28.604Z,22.10
2022-07-31T22:44:57.245Z,22.10
2022-07-31T22:47:27.191Z,22.20
2022-07-31T22:49:56.344Z,22.10
2022-07-31T22:52:24.811Z,22.20
2022-07-31T22:55:05.339Z,22.20
2022-07-31T22:57:33.593Z,22.20
2022-07-31T23:00:01.850Z,22.20
2022-07-31T23:02:30.108Z,22.20
2022-07-31T23:04:58.322Z,22.10
2022-07-31T23:07:26.377Z,21.90
2022-07-31T23:09:54.612Z,21.80
2022-07-31T23:12:28.357Z,21.90
2022-07-31T23:14:57.494Z,22.00
2022-07-31T23:17:25.575Z,22.00
2022-07-31T23:19:54.733Z,22.00
2022-07-31T23:22:33.266Z,22.00
2022-07-31T23:25:02.574Z,21.90
2022-07-31T23:27:32.422Z,22.00
2022-07-31T23:30:00.967Z,22.00
2022-07-31T23:32:29.675Z,22.00
2022-07-31T23:34:57.900Z,22.00
2022-07-31T23:37:25.987Z,21.90
2022-07-31T23:39:54.116Z,21.90
2022-07-31T23:42:40.437Z,21.90
2022-07-31T23:45:12.865Z,21.80
2022-07-31T23:47:46.189Z,21.80
2022-07-31T23:50:16.225Z,21.50
2022-07-31T23:52:46.750Z,21.20
2022-07-31T23:55:14.911Z,21.00
2022-07-31T23:57:43.183Z,20.90
